sensor_id;sensor_type;location;lat;lon;timestamp;pressure;altitude;pressure_sealevel;temperature;humidity
24558;BME280;12726;49.148;8.582;2023-08-21T00:02:18;100800.03;;;22.68;100.00
24558;BME280;12726;49.148;8.582;2023-08-21T00:05:03;100800.03;;;22.68;100.00
24558;BME280;12726;49.148;8.582;2023-08-21T00:07:48;100799.22;;;22.67;100.00
24558;BME280;12726;49.148;8.582;2023-08-21T00:10:37;100795.38;;;22.69;100.00
24558;BME280;12726;49.148;8.582;2023-08-21T00:13:24;100800.59;;;22.70;100.00
24558;BME280;12726;49.148;8.582;2023-08-21T00:16:09;100797.84;;;22.70;100.00
24558;BME280;12726;49.148;8.582;2023-08-21T00:18:54;100804.97;;;22.71;100.00
24558;BME280;12726;49.148;8.582;2023-08-21T00:21:40;100804.44;;;22.74;100.00
24558;BME280;12726;49.148;8.582;2023-08-21T00:24:26;100801.97;;;22.78;100.00
24558;BME280;12726;49.148;8.582;2023-08-21T00:27:11;100794.28;;;22.75;100.00
24558;BME280;12726;49.148;8.582;2023-08-21T00:29:59;100785.22;;;22.69;100.00
24558;BME280;12726;49.148;8.582;2023-08-21T00:32:45;100789.41;;;22.56;100.00
24558;BME280;12726;49.148;8.582;2023-08-21T00:35:30;100788.13;;;22.44;100.00
24558;BME280;12726;49.148;8.582;2023-08-21T00:38:16;100792.00;;;22.38;100.00
24558;BME280;12726;49.148;8.582;2023-08-21T00:41:01;100781.56;;;22.35;100.00
24558;BME280;12726;49.148;8.582;2023-08-21T00:43:47;100787.06;;;22.35;100.00
24558;BME280;12726;49.148;8.582;2023-08-21T00:46:34;100780.19;;;22.32;100.00
24558;BME280;12726;49.148;8.582;2023-08-21T00:49:19;100778.00;;;22.34;100.00
24558;BME280;12726;49.148;8.582;2023-08-21T00:52:06;100785.97;;;22.36;100.00
24558;BME280;12726;49.148;8.582;2023-08-21T00:54:54;100775.53;;;22.33;100.00
24558;BME280;12726;49.148;8.582;2023-08-21T00:57:40;100784.31;;;22.35;100.00
24558;BME280;12726;49.148;8.582;2023-08-21T01:00:27;100775.81;;;22.36;100.00
24558;BME280;12726;49.148;8.582;2023-08-21T01:03:15;100784.03;;;22.36;100.00
24558;BME280;12726;49.148;8.582;2023-08-21T01:06:00;100776.34;;;22.33;100.00
24558;BME280;12726;49.148;8.582;2023-08-21T01:08:50;100787.34;;;22.28;100.00
24558;BME280;12726;49.148;8.582;2023-08-21T01:11:42;100791.50;;;22.20;100.00
24558;BME280;12726;49.148;8.582;2023-08-21T01:14:35;100792.34;;;22.16;100.00
24558;BME280;12726;49.148;8.582;2023-08-21T01:17:21;100794.00;;;22.12;100.00
24558;BME280;12726;49.148;8.582;2023-08-21T01:20:10;100797.31;;;22.04;100.00
24558;BME280;12726;49.148;8.582;2023-08-21T01:22:56;100797.88;;;22.01;100.00
24558;BME280;12726;49.148;8.582;2023-08-21T01:25:43;100805.81;;;21.97;100.00
24558;BME280;12726;49.148;8.582;2023-08-21T01:28:29;100804.44;;;21.95;100.00
24558;BME280;12726;49.148;8.582;2023-08-21T01:31:18;100802.81;;;21.94;100.00
24558;BME280;12726;49.148;8.582;2023-08-21T01:34:08;100810.22;;;21.93;100.00
24558;BME280;12726;49.148;8.582;2023-08-21T01:36:56;100809.66;;;21.91;100.00
24558;BME280;12726;49.148;8.582;2023-08-21T01:39:42;100802.53;;;21.90;100.00
24558;BME280;12726;49.148;8.582;2023-08-21T01:42:29;100807.19;;;21.89;100.00
24558;BME280;12726;49.148;8.582;2023-08-21T01:45:14;100797.03;;;21.90;100.00
24558;BME280;12726;49.148;8.582;2023-08-21T01:47:59;100799.50;;;21.92;100.00
24558;BME280;12726;49.148;8.582;2023-08-21T01:50:44;100804.72;;;21.93;100.00
24558;BME280;12726;49.148;8.582;2023-08-21T01:53:30;100805.25;;;21.90;100.00
24558;BME280;12726;49.148;8.582;2023-08-21T01:56:15;100811.56;;;21.91;100.00
24558;BME280;12726;49.148;8.582;2023-08-21T01:59:03;100804.75;;;21.88;100.00
24558;BME280;12726;49.148;8.582;2023-08-21T02:01:50;100808.03;;;21.85;100.00
24558;BME280;12726;49.148;8.582;2023-08-21T02:04:35;100806.66;;;21.82;100.00
24558;BME280;12726;49.148;8.582;2023-08-21T02:07:21;100806.66;;;21.77;100.00
24558;BME280;12726;49.148;8.582;2023-08-21T02:10:07;100817.06;;;21.75;100.00
24558;BME280;12726;49.148;8.582;2023-08-21T02:12:52;100819.00;;;21.75;100.00
24558;BME280;12726;49.148;8.582;2023-08-21T02:15:39;100827.78;;;21.72;100.00
24558;BME280;12726;49.148;8.582;2023-08-21T02:18:25;100822.56;;;21.70;100.00
24558;BME280;12726;49.148;8.582;2023-08-21T02:21:09;100825.31;;;21.70;100.00
24558;BME280;12726;49.148;8.582;2023-08-21T02:23:55;100821.47;;;21.71;100.00
24558;BME280;12726;49.148;8.582;2023-08-21T02:26:40;100821.75;;;21.70;100.00
24558;BME280;12726;49.148;8.582;2023-08-21T02:29:26;100820.69;;;21.66;100.00
24558;BME280;12726;49.148;8.582;2023-08-21T02:32:13;100825.88;;;21.62;100.00
24558;BME280;12726;49.148;8.582;2023-08-21T02:34:59;100825.06;;;21.57;100.00
24558;BME280;12726;49.148;8.582;2023-08-21T02:37:44;100833.81;;;21.54;100.00
24558;BME280;12726;49.148;8.582;2023-08-21T02:40:30;100837.13;;;21.51;100.00
24558;BME280;12726;49.148;8.582;2023-08-21T02:43:15;100834.38;;;21.45;100.00
24558;BME280;12726;49.148;8.582;2023-08-21T02:46:01;100831.91;;;21.44;100.00
24558;BME280;12726;49.148;8.582;2023-08-21T02:48:47;100824.78;;;21.43;100.00
24558;BME280;12726;49.148;8.582;2023-08-21T02:51:33;100823.16;;;21.42;100.00
24558;BME280;12726;49.148;8.582;2023-08-21T02:54:18;100824.22;;;21.41;100.00
24558;BME280;12726;49.148;8.582;2023-08-21T02:57:04;100822.88;;;21.38;100.00
24558;BME280;12726;49.148;8.582;2023-08-21T02:59:49;100823.16;;;21.37;100.00
24558;BME280;12726;49.148;8.582;2023-08-21T03:02:34;100814.91;;;21.32;100.00
24558;BME280;12726;49.148;8.582;2023-08-21T03:05:21;100829.16;;;21.29;100.00
24558;BME280;12726;49.148;8.582;2023-08-21T03:08:07;100810.84;;;21.24;100.00
24558;BME280;12726;49.148;8.582;2023-08-21T03:10:52;100811.91;;;21.18;100.00
24558;BME280;12726;49.148;8.582;2023-08-21T03:13:38;100822.56;;;21.09;100.00
24558;BME280;12726;49.148;8.582;2023-08-21T03:16:23;100823.34;;;21.05;100.00
24558;BME280;12726;49.148;8.582;2023-08-21T03:19:08;100823.91;;;21.02;100.00
24558;BME280;12726;49.148;8.582;2023-08-21T03:21:55;100822.25;;;20.96;100.00
24558;BME280;12726;49.148;8.582;2023-08-21T03:24:40;100808.53;;;20.86;100.00
24558;BME280;12726;49.148;8.582;2023-08-21T03:27:25;100820.59;;;20.90;100.00
24558;BME280;12726;49.148;8.582;2023-08-21T03:30:11;100822.78;;;20.88;100.00
24558;BME280;12726;49.148;8.582;2023-08-21T03:32:58;100817.84;;;20.85;100.00
24558;BME280;12726;49.148;8.582;2023-08-21T03:35:44;100820.03;;;20.83;100.00
24558;BME280;12726;49.148;8.582;2023-08-21T03:38:31;100829.34;;;20.82;100.00
24558;BME280;12726;49.148;8.582;2023-08-21T03:41:16;100828.78;;;20.80;100.00
24558;BME280;12726;49.148;8.582;2023-08-21T03:44:01;100818.09;;;20.78;100.00
24558;BME280;12726;49.148;8.582;2023-08-21T03:46:46;100821.09;;;20.77;100.00
24558;BME280;12726;49.148;8.582;2023-08-21T03:49:32;100824.41;;;20.74;100.00
24558;BME280;12726;49.148;8.582;2023-08-21T03:52:17;100823.56;;;20.73;100.00
24558;BME280;12726;49.148;8.582;2023-08-21T03:55:04;100826.31;;;20.73;100.00
24558;BME280;12726;49.148;8.582;2023-08-21T03:57:50;100833.69;;;20.73;100.00
24558;BME280;12726;49.148;8.582;2023-08-21T04:00:35;100826.00;;;20.69;100.00
24558;BME280;12726;49.148;8.582;2023-08-21T04:03:20;100826.25;;;20.63;100.00
24558;BME280;12726;49.148;8.582;2023-08-21T04:06:06;100828.44;;;20.61;100.00
24558;BME280;12726;49.148;8.582;2023-08-21T04:08:51;100834.19;;;20.59;100.00
24558;BME280;12726;49.148;8.582;2023-08-21T04:11:38;100837.19;;;20.58;100.00
24558;BME280;12726;49.148;8.582;2023-08-21T04:14:23;100845.66;;;20.56;100.00
24558;BME280;12726;49.148;8.582;2023-08-21T04:17:09;100845.94;;;20.55;100.00
24558;BME280;12726;49.148;8.582;2023-08-21T04:19:55;100846.75;;;20.55;100.00
24558;BME280;12726;49.148;8.582;2023-08-21T04:22:40;100839.38;;;20.56;100.00
24558;BME280;12726;49.148;8.582;2023-08-21T04:25:25;100841.84;;;20.57;100.00
24558;BME280;12726;49.148;8.582;2023-08-21T04:28:12;100844.31;;;20.59;100.00
24558;BME280;12726;49.148;8.582;2023-08-21T04:30:58;100851.13;;;20.56;100.00
24558;BME280;12726;49.148;8.582;2023-08-21T04:33:43;100851.13;;;20.56;100.00
24558;BME280;12726;49.148;8.582;2023-08-21T04:36:28;100855.78;;;20.61;100.00
24558;BME280;12726;49.148;8.582;2023-08-21T04:39:14;100859.91;;;20.63;100.00
24558;BME280;12726;49.148;8.582;2023-08-21T04:41:59;100861.00;;;20.67;100.00
24558;BME280;12726;49.148;8.582;2023-08-21T04:44:46;100851.19;;;20.71;100.00
24558;BME280;12726;49.148;8.582;2023-08-21T04:47:32;100855.03;;;20.76;100.00
24558;BME280;12726;49.148;8.582;2023-08-21T04:50:17;100861.63;;;20.80;100.00
24558;BME280;12726;49.148;8.582;2023-08-21T04:53:03;100860.53;;;20.81;100.00
24558;BME280;12726;49.148;8.582;2023-08-21T04:55:48;100858.63;;;20.81;100.00
24558;BME280;12726;49.148;8.582;2023-08-21T04:58:33;100864.09;;;20.81;100.00
24558;BME280;12726;49.148;8.582;2023-08-21T05:01:20;100864.09;;;20.81;100.00
24558;BME280;12726;49.148;8.582;2023-08-21T05:04:05;100865.19;;;20.80;100.00
24558;BME280;12726;49.148;8.582;2023-08-21T05:06:50;100871.75;;;20.79;100.00
24558;BME280;12726;49.148;8.582;2023-08-21T05:09:36;100869.28;;;20.83;100.00
24558;BME280;12726;49.148;8.582;2023-08-21T05:12:21;100870.09;;;20.83;100.00
24558;BME280;12726;49.148;8.582;2023-08-21T05:15:07;100869.03;;;20.84;100.00
24558;BME280;12726;49.148;8.582;2023-08-21T05:17:53;100870.97;;;20.94;100.00
24558;BME280;12726;49.148;8.582;2023-08-21T05:20:39;100873.97;;;20.97;100.00
24558;BME280;12726;49.148;8.582;2023-08-21T05:23:24;100876.47;;;21.04;100.00
24558;BME280;12726;49.148;8.582;2023-08-21T05:26:10;100882.78;;;21.09;100.00
24558;BME280;12726;49.148;8.582;2023-08-21T05:28:55;100885.53;;;21.15;100.00
24558;BME280;12726;49.148;8.582;2023-08-21T05:31:41;100876.78;;;21.18;100.00
24558;BME280;12726;49.148;8.582;2023-08-21T05:34:27;100899.28;;;21.30;100.00
24558;BME280;12726;49.148;8.582;2023-08-21T05:37:13;100883.13;;;21.33;100.00
24558;BME280;12726;49.148;8.582;2023-08-21T05:39:58;100885.31;;;21.46;100.00
24558;BME280;12726;49.148;8.582;2023-08-21T05:42:44;100893.03;;;21.60;100.00
24558;BME280;12726;49.148;8.582;2023-08-21T05:45:30;100891.66;;;21.72;100.00
24558;BME280;12726;49.148;8.582;2023-08-21T05:48:15;100898.19;;;21.81;100.00
24558;BME280;12726;49.148;8.582;2023-08-21T05:51:03;100903.44;;;21.98;100.00
24558;BME280;12726;49.148;8.582;2023-08-21T05:53:49;100896.56;;;22.06;100.00
24558;BME280;12726;49.148;8.582;2023-08-21T05:56:35;100895.44;;;22.27;100.00
24558;BME280;12726;49.148;8.582;2023-08-21T05:59:26;100875.66;;;22.35;100.00
24558;BME280;12726;49.148;8.582;2023-08-21T06:02:13;100897.25;;;22.57;100.00
24558;BME280;12726;49.148;8.582;2023-08-21T06:04:59;100895.00;;;22.79;100.00
24558;BME280;12726;49.148;8.582;2023-08-21T06:07:45;100901.50;;;22.98;100.00
24558;BME280;12726;49.148;8.582;2023-08-21T06:13:16;100913.03;;;23.45;99.98
24558;BME280;12726;49.148;8.582;2023-08-21T06:16:02;100905.81;;;23.59;95.94
24558;BME280;12726;49.148;8.582;2023-08-21T06:18:47;100909.50;;;23.78;95.19
24558;BME280;12726;49.148;8.582;2023-08-21T06:21:32;100907.41;;;23.99;93.56
24558;BME280;12726;49.148;8.582;2023-08-21T06:24:19;100915.72;;;24.23;91.83
24558;BME280;12726;49.148;8.582;2023-08-21T06:27:04;100925.69;;;24.42;90.45
24558;BME280;12726;49.148;8.582;2023-08-21T06:29:50;100920.72;;;24.68;89.53
24558;BME280;12726;49.148;8.582;2023-08-21T06:32:35;100929.00;;;24.92;86.54
24558;BME280;12726;49.148;8.582;2023-08-21T06:35:20;100928.72;;;25.12;85.74
24558;BME280;12726;49.148;8.582;2023-08-21T06:38:06;100929.41;;;25.42;84.64
24558;BME280;12726;49.148;8.582;2023-08-21T06:40:53;100921.59;;;25.81;81.94
24558;BME280;12726;49.148;8.582;2023-08-21T06:43:38;100925.97;;;26.33;80.11
24558;BME280;12726;49.148;8.582;2023-08-21T06:46:23;100929.97;;;26.68;76.93
24558;BME280;12726;49.148;8.582;2023-08-21T06:49:09;100910.91;;;27.08;74.43
24558;BME280;12726;49.148;8.582;2023-08-21T06:51:54;100917.81;;;27.69;72.27
24558;BME280;12726;49.148;8.582;2023-08-21T06:54:39;100924.03;;;28.19;70.01
24558;BME280;12726;49.148;8.582;2023-08-21T06:57:26;100926.44;;;28.51;67.49
24558;BME280;12726;49.148;8.582;2023-08-21T07:00:13;100921.50;;;28.79;67.11
24558;BME280;12726;49.148;8.582;2023-08-21T07:02:58;100936.59;;;29.21;65.06
24558;BME280;12726;49.148;8.582;2023-08-21T07:05:46;100930.13;;;29.43;62.06
24558;BME280;12726;49.148;8.582;2023-08-21T07:08:31;100920.66;;;29.44;62.60
24558;BME280;12726;49.148;8.582;2023-08-21T07:11:17;100928.50;;;29.59;62.76
24558;BME280;12726;49.148;8.582;2023-08-21T07:14:03;100935.50;;;29.91;61.49
24558;BME280;12726;49.148;8.582;2023-08-21T07:16:49;100922.59;;;30.04;61.05
24558;BME280;12726;49.148;8.582;2023-08-21T07:19:34;100933.63;;;30.21;59.91
24558;BME280;12726;49.148;8.582;2023-08-21T07:22:20;100934.03;;;30.49;58.94
24558;BME280;12726;49.148;8.582;2023-08-21T07:25:06;100929.88;;;30.72;58.55
24558;BME280;12726;49.148;8.582;2023-08-21T07:27:51;100930.19;;;31.00;58.07
24558;BME280;12726;49.148;8.582;2023-08-21T07:30:39;100931.53;;;31.23;57.96
24558;BME280;12726;49.148;8.582;2023-08-21T07:33:25;100933.09;;;31.54;57.25
24558;BME280;12726;49.148;8.582;2023-08-21T07:36:10;100931.28;;;31.90;55.22
24558;BME280;12726;49.148;8.582;2023-08-21T07:39:01;100926.47;;;32.33;53.19
24558;BME280;12726;49.148;8.582;2023-08-21T07:41:46;100922.53;;;32.46;52.73
24558;BME280;12726;49.148;8.582;2023-08-21T07:44:32;100922.28;;;32.51;53.69
24558;BME280;12726;49.148;8.582;2023-08-21T07:47:18;100930.31;;;32.77;52.63
24558;BME280;12726;49.148;8.582;2023-08-21T07:50:05;100923.00;;;32.96;52.18
24558;BME280;12726;49.148;8.582;2023-08-21T07:52:50;100931.59;;;33.03;52.35
24558;BME280;12726;49.148;8.582;2023-08-21T07:55:36;100923.44;;;33.23;51.08
24558;BME280;12726;49.148;8.582;2023-08-21T07:58:24;100928.66;;;33.12;50.93
24558;BME280;12726;49.148;8.582;2023-08-21T08:01:10;100929.28;;;32.93;50.74
24558;BME280;12726;49.148;8.582;2023-08-21T08:03:56;100932.97;;;33.10;51.41
24558;BME280;12726;49.148;8.582;2023-08-21T08:06:41;100926.34;;;33.54;50.86
24558;BME280;12726;49.148;8.582;2023-08-21T08:09:27;100927.56;;;33.81;50.10
24558;BME280;12726;49.148;8.582;2023-08-21T08:12:12;100932.75;;;33.55;50.95
24558;BME280;12726;49.148;8.582;2023-08-21T08:14:57;100923.34;;;33.87;50.67
24558;BME280;12726;49.148;8.582;2023-08-21T08:17:43;100929.56;;;34.24;49.36
24558;BME280;12726;49.148;8.582;2023-08-21T08:20:30;100932.91;;;34.45;48.01
24558;BME280;12726;49.148;8.582;2023-08-21T08:23:16;100927.75;;;34.47;45.38
24558;BME280;12726;49.148;8.582;2023-08-21T08:26:01;100921.66;;;34.73;47.25
24558;BME280;12726;49.148;8.582;2023-08-21T08:28:47;100932.44;;;34.75;47.77
24558;BME280;12726;49.148;8.582;2023-08-21T08:31:32;100932.84;;;34.73;47.31
24558;BME280;12726;49.148;8.582;2023-08-21T08:34:17;100925.88;;;34.67;46.83
24558;BME280;12726;49.148;8.582;2023-08-21T08:37:05;100931.34;;;34.64;46.94
24558;BME280;12726;49.148;8.582;2023-08-21T08:39:50;100929.81;;;34.82;45.94
24558;BME280;12726;49.148;8.582;2023-08-21T08:42:36;100923.47;;;35.01;45.23
24558;BME280;12726;49.148;8.582;2023-08-21T08:45:28;100925.69;;;35.46;45.03
24558;BME280;12726;49.148;8.582;2023-08-21T08:48:14;100921.56;;;35.59;43.13
24558;BME280;12726;49.148;8.582;2023-08-21T08:51:02;100918.78;;;35.78;42.75
24558;BME280;12726;49.148;8.582;2023-08-21T08:53:49;100921.84;;;35.34;44.35
24558;BME280;12726;49.148;8.582;2023-08-21T08:56:35;100927.25;;;35.24;45.24
24558;BME280;12726;49.148;8.582;2023-08-21T08:59:20;100917.72;;;35.48;43.70
24558;BME280;12726;49.148;8.582;2023-08-21T09:02:06;100912.38;;;35.78;42.78
24558;BME280;12726;49.148;8.582;2023-08-21T09:04:51;100909.91;;;35.57;43.16
24558;BME280;12726;49.148;8.582;2023-08-21T09:07:36;100921.09;;;35.72;43.89
24558;BME280;12726;49.148;8.582;2023-08-21T09:10:25;100917.50;;;35.56;44.50
24558;BME280;12726;49.148;8.582;2023-08-21T09:13:14;100916.53;;;35.68;44.87
24558;BME280;12726;49.148;8.582;2023-08-21T09:16:00;100914.13;;;35.47;44.10
24558;BME280;12726;49.148;8.582;2023-08-21T09:18:47;100909.94;;;35.38;46.00
24558;BME280;12726;49.148;8.582;2023-08-21T09:21:33;100917.22;;;35.42;44.00
24558;BME280;12726;49.148;8.582;2023-08-21T09:24:18;100912.56;;;35.50;45.43
24558;BME280;12726;49.148;8.582;2023-08-21T09:27:12;100906.50;;;35.67;43.91
24558;BME280;12726;49.148;8.582;2023-08-21T09:29:58;100902.81;;;36.01;43.72
24558;BME280;12726;49.148;8.582;2023-08-21T09:32:54;100900.91;;;36.28;42.78
24558;BME280;12726;49.148;8.582;2023-08-21T09:35:42;100894.84;;;36.49;41.21
24558;BME280;12726;49.148;8.582;2023-08-21T09:38:27;100892.88;;;36.27;42.01
24558;BME280;12726;49.148;8.582;2023-08-21T09:41:14;100887.88;;;36.39;42.37
24558;BME280;12726;49.148;8.582;2023-08-21T09:44:01;100889.50;;;36.40;43.21
24558;BME280;12726;49.148;8.582;2023-08-21T09:46:48;100885.25;;;36.50;41.15
24558;BME280;12726;49.148;8.582;2023-08-21T09:49:34;100885.38;;;36.34;42.54
24558;BME280;12726;49.148;8.582;2023-08-21T09:52:21;100894.50;;;36.28;40.43
24558;BME280;12726;49.148;8.582;2023-08-21T09:55:07;100887.25;;;36.27;40.75
24558;BME280;12726;49.148;8.582;2023-08-21T09:57:53;100879.38;;;35.90;42.65
24558;BME280;12726;49.148;8.582;2023-08-21T10:00:44;100884.91;;;36.29;41.18
24558;BME280;12726;49.148;8.582;2023-08-21T10:03:31;100877.34;;;36.82;40.76
24558;BME280;12726;49.148;8.582;2023-08-21T10:06:17;100872.59;;;36.86;41.50
24558;BME280;12726;49.148;8.582;2023-08-21T10:09:03;100869.13;;;36.96;41.33
24558;BME280;12726;49.148;8.582;2023-08-21T10:11:49;100870.03;;;37.30;41.44
24558;BME280;12726;49.148;8.582;2023-08-21T10:14:36;100868.06;;;37.38;39.36
24558;BME280;12726;49.148;8.582;2023-08-21T10:17:23;100863.84;;;37.51;38.81
24558;BME280;12726;49.148;8.582;2023-08-21T10:20:09;100870.19;;;36.88;41.02
24558;BME280;12726;49.148;8.582;2023-08-21T10:22:56;100858.22;;;36.91;40.23
24558;BME280;12726;49.148;8.582;2023-08-21T10:25:45;100845.53;;;37.01;41.06
24558;BME280;12726;49.148;8.582;2023-08-21T10:28:42;100855.53;;;37.28;39.28
24558;BME280;12726;49.148;8.582;2023-08-21T10:31:29;100851.50;;;37.25;39.56
24558;BME280;12726;49.148;8.582;2023-08-21T10:34:18;100843.69;;;37.45;39.50
24558;BME280;12726;49.148;8.582;2023-08-21T10:37:08;100837.25;;;37.41;39.07
24558;BME280;12726;49.148;8.582;2023-08-21T10:39:56;100841.50;;;37.28;39.42
24558;BME280;12726;49.148;8.582;2023-08-21T10:42:41;100841.22;;;37.37;37.55
24558;BME280;12726;49.148;8.582;2023-08-21T10:45:27;100830.66;;;37.27;36.73
24558;BME280;12726;49.148;8.582;2023-08-21T10:48:12;100837.44;;;37.25;35.58
24558;BME280;12726;49.148;8.582;2023-08-21T10:51:00;100838.50;;;37.47;34.55
24558;BME280;12726;49.148;8.582;2023-08-21T10:53:47;100827.75;;;37.19;33.76
24558;BME280;12726;49.148;8.582;2023-08-21T10:56:32;100825.09;;;37.30;34.70
24558;BME280;12726;49.148;8.582;2023-08-21T10:59:18;100818.75;;;37.37;33.95
24558;BME280;12726;49.148;8.582;2023-08-21T11:02:03;100833.22;;;36.79;34.27
24558;BME280;12726;49.148;8.582;2023-08-21T11:04:49;100825.06;;;36.70;36.20
24558;BME280;12726;49.148;8.582;2023-08-21T11:07:40;100826.38;;;36.54;35.37
24558;BME280;12726;49.148;8.582;2023-08-21T11:10:29;100827.81;;;36.67;35.63
24558;BME280;12726;49.148;8.582;2023-08-21T11:13:14;100818.13;;;36.91;35.30
24558;BME280;12726;49.148;8.582;2023-08-21T11:16:00;100821.94;;;37.05;35.47
24558;BME280;12726;49.148;8.582;2023-08-21T11:18:46;100818.84;;;36.84;36.46
24558;BME280;12726;49.148;8.582;2023-08-21T11:21:31;100820.72;;;36.24;36.64
24558;BME280;12726;49.148;8.582;2023-08-21T11:24:18;100820.41;;;36.29;36.86
24558;BME280;12726;49.148;8.582;2023-08-21T11:27:03;100817.81;;;36.43;36.54
24558;BME280;12726;49.148;8.582;2023-08-21T11:29:50;100816.47;;;36.33;35.72
24558;BME280;12726;49.148;8.582;2023-08-21T11:32:36;100810.97;;;36.67;36.55
24558;BME280;12726;49.148;8.582;2023-08-21T11:35:21;100815.84;;;37.00;35.54
24558;BME280;12726;49.148;8.582;2023-08-21T11:38:14;100814.56;;;37.23;35.97
24558;BME280;12726;49.148;8.582;2023-08-21T11:41:02;100807.59;;;37.47;35.05
24558;BME280;12726;49.148;8.582;2023-08-21T11:43:47;100807.50;;;37.74;34.41
24558;BME280;12726;49.148;8.582;2023-08-21T11:46:34;100807.16;;;37.79;34.33
24558;BME280;12726;49.148;8.582;2023-08-21T11:49:19;100806.50;;;37.55;34.54
24558;BME280;12726;49.148;8.582;2023-08-21T11:52:06;100805.19;;;37.46;36.17
24558;BME280;12726;49.148;8.582;2023-08-21T11:54:53;100814.41;;;37.46;36.37
24558;BME280;12726;49.148;8.582;2023-08-21T11:57:51;100804.38;;;37.45;34.07
24558;BME280;12726;49.148;8.582;2023-08-21T12:00:39;100803.41;;;37.31;35.11
24558;BME280;12726;49.148;8.582;2023-08-21T12:03:25;100803.03;;;37.32;36.69
24558;BME280;12726;49.148;8.582;2023-08-21T12:06:12;100800.72;;;37.41;35.41
24558;BME280;12726;49.148;8.582;2023-08-21T12:08:57;100800.53;;;36.94;36.46
24558;BME280;12726;49.148;8.582;2023-08-21T12:11:44;100808.31;;;37.07;35.87
24558;BME280;12726;49.148;8.582;2023-08-21T12:14:30;100796.84;;;36.86;36.19
24558;BME280;12726;49.148;8.582;2023-08-21T12:17:16;100800.53;;;36.94;37.27
24558;BME280;12726;49.148;8.582;2023-08-21T12:20:01;100799.53;;;37.09;37.09
24558;BME280;12726;49.148;8.582;2023-08-21T12:22:54;100796.88;;;36.63;35.52
24558;BME280;12726;49.148;8.582;2023-08-21T12:25:40;100788.91;;;36.95;35.25
24558;BME280;12726;49.148;8.582;2023-08-21T12:28:25;100784.00;;;37.15;34.55
24558;BME280;12726;49.148;8.582;2023-08-21T12:31:12;100791.88;;;37.06;34.17
24558;BME280;12726;49.148;8.582;2023-08-21T12:33:58;100775.06;;;36.49;35.15
24558;BME280;12726;49.148;8.582;2023-08-21T12:36:43;100777.41;;;36.47;35.40
24558;BME280;12726;49.148;8.582;2023-08-21T12:39:28;100773.38;;;36.71;36.01
24558;BME280;12726;49.148;8.582;2023-08-21T12:42:14;100780.63;;;36.72;37.05
24558;BME280;12726;49.148;8.582;2023-08-21T12:44:59;100773.03;;;36.76;36.58
24558;BME280;12726;49.148;8.582;2023-08-21T12:47:46;100762.94;;;36.42;37.94
24558;BME280;12726;49.148;8.582;2023-08-21T12:50:31;100757.34;;;36.45;35.05
24558;BME280;12726;49.148;8.582;2023-08-21T12:53:17;100760.28;;;36.26;36.88
24558;BME280;12726;49.148;8.582;2023-08-21T12:56:02;100751.34;;;36.43;36.70
24558;BME280;12726;49.148;8.582;2023-08-21T12:58:47;100756.66;;;36.52;36.78
24558;BME280;12726;49.148;8.582;2023-08-21T13:01:35;100759.59;;;36.63;36.89
24558;BME280;12726;49.148;8.582;2023-08-21T13:04:23;100749.19;;;36.63;37.37
24558;BME280;12726;49.148;8.582;2023-08-21T13:07:08;100748.63;;;36.51;35.60
24558;BME280;12726;49.148;8.582;2023-08-21T13:09:53;100748.84;;;36.38;36.30
24558;BME280;12726;49.148;8.582;2023-08-21T13:12:39;100747.69;;;36.17;37.60
24558;BME280;12726;49.148;8.582;2023-08-21T13:15:24;100739.72;;;35.92;38.54
24558;BME280;12726;49.148;8.582;2023-08-21T13:18:09;100751.25;;;35.87;38.31
24558;BME280;12726;49.148;8.582;2023-08-21T13:20:56;100746.25;;;35.77;37.35
24558;BME280;12726;49.148;8.582;2023-08-21T13:23:41;100748.25;;;35.77;39.54
24558;BME280;12726;49.148;8.582;2023-08-21T13:26:27;100736.72;;;35.59;38.83
24558;BME280;12726;49.148;8.582;2023-08-21T13:29:13;100735.34;;;35.49;37.65
24558;BME280;12726;49.148;8.582;2023-08-21T13:31:59;100739.88;;;35.34;38.38
24558;BME280;12726;49.148;8.582;2023-08-21T13:34:44;100734.34;;;35.19;37.71
24558;BME280;12726;49.148;8.582;2023-08-21T13:37:31;100738.44;;;35.02;38.37
24558;BME280;12726;49.148;8.582;2023-08-21T13:40:17;100730.44;;;35.04;38.83
24558;BME280;12726;49.148;8.582;2023-08-21T13:43:03;100739.59;;;35.01;39.09
24558;BME280;12726;49.148;8.582;2023-08-21T13:45:48;100729.50;;;34.77;37.74
24558;BME280;12726;49.148;8.582;2023-08-21T13:48:35;100724.50;;;34.86;37.62
24558;BME280;12726;49.148;8.582;2023-08-21T13:51:21;100726.00;;;34.80;38.87
24558;BME280;12726;49.148;8.582;2023-08-21T13:54:08;100725.28;;;34.68;40.11
24558;BME280;12726;49.148;8.582;2023-08-21T13:56:53;100713.94;;;34.61;39.01
24558;BME280;12726;49.148;8.582;2023-08-21T13:59:38;100716.50;;;34.50;38.53
24558;BME280;12726;49.148;8.582;2023-08-21T14:02:23;100710.78;;;34.43;38.39
24558;BME280;12726;49.148;8.582;2023-08-21T14:05:09;100704.31;;;34.39;38.85
24558;BME280;12726;49.148;8.582;2023-08-21T14:07:55;100698.72;;;34.39;37.42
24558;BME280;12726;49.148;8.582;2023-08-21T14:10:42;100707.81;;;34.20;38.29
24558;BME280;12726;49.148;8.582;2023-08-21T14:13:28;100702.16;;;34.16;39.70
24558;BME280;12726;49.148;8.582;2023-08-21T14:16:13;100699.94;;;34.06;40.38
24558;BME280;12726;49.148;8.582;2023-08-21T14:18:58;100699.47;;;34.04;41.37
24558;BME280;12726;49.148;8.582;2023-08-21T14:21:44;100696.00;;;33.92;41.30
24558;BME280;12726;49.148;8.582;2023-08-21T14:24:29;100695.63;;;33.93;42.01
24558;BME280;12726;49.148;8.582;2023-08-21T14:27:16;100689.16;;;33.89;40.41